sensor_id;sensor_type;location;lat;lon;timestamp;P1;durP1;ratioP1;P2;durP2;ratioP2
3347;SDS011;1687;49.540;8.574;2023-05-10T00:01:23;2.37;;;1.20;;
3347;SDS011;1687;49.540;8.574;2023-05-10T00:03:49;2.00;;;1.00;;
3347;SDS011;1687;49.540;8.574;2023-05-10T00:06:15;3.00;;;1.27;;
3347;SDS011;1687;49.540;8.574;2023-05-10T00:08:40;8.43;;;1.30;;
3347;SDS011;1687;49.540;8.574;2023-05-10T00:11:06;1.90;;;0.90;;
3347;SDS011;1687;49.540;8.574;2023-05-10T00:13:32;2.33;;;1.10;;
3347;SDS011;1687;49.540;8.574;2023-05-10T00:15:58;1.90;;;1.00;;
3347;SDS011;1687;49.540;8.574;2023-05-10T00:18:23;1.70;;;0.90;;
3347;SDS011;1687;49.540;8.574;2023-05-10T00:20:49;2.67;;;1.50;;
3347;SDS011;1687;49.540;8.574;2023-05-10T00:23:15;2.63;;;1.10;;
3347;SDS011;1687;49.540;8.574;2023-05-10T00:25:40;3.23;;;1.07;;
3347;SDS011;1687;49.540;8.574;2023-05-10T00:28:06;3.13;;;1.30;;
3347;SDS011;1687;49.540;8.574;2023-05-10T00:30:32;3.10;;;1.00;;
3347;SDS011;1687;49.540;8.574;2023-05-10T00:32:58;2.40;;;1.17;;
3347;SDS011;1687;49.540;8.574;2023-05-10T00:35:24;2.10;;;1.10;;
3347;SDS011;1687;49.540;8.574;2023-05-10T00:37:49;6.10;;;1.50;;
3347;SDS011;1687;49.540;8.574;2023-05-10T00:40:15;2.43;;;1.10;;
3347;SDS011;1687;49.540;8.574;2023-05-10T00:42:41;1.77;;;1.10;;
3347;SDS011;1687;49.540;8.574;2023-05-10T00:45:07;2.83;;;1.20;;
3347;SDS011;1687;49.540;8.574;2023-05-10T00:47:33;3.67;;;1.67;;
3347;SDS011;1687;49.540;8.574;2023-05-10T00:49:59;3.30;;;1.20;;
3347;SDS011;1687;49.540;8.574;2023-05-10T00:52:28;2.40;;;1.40;;
3347;SDS011;1687;49.540;8.574;2023-05-10T00:54:55;2.93;;;1.30;;
3347;SDS011;1687;49.540;8.574;2023-05-10T00:57:21;2.47;;;1.27;;
3347;SDS011;1687;49.540;8.574;2023-05-10T00:59:48;3.13;;;1.30;;
3347;SDS011;1687;49.540;8.574;2023-05-10T01:02:14;3.13;;;1.40;;
3347;SDS011;1687;49.540;8.574;2023-05-10T01:04:40;4.33;;;1.20;;
3347;SDS011;1687;49.540;8.574;2023-05-10T01:07:05;1.90;;;1.10;;
3347;SDS011;1687;49.540;8.574;2023-05-10T01:09:31;2.70;;;1.33;;
3347;SDS011;1687;49.540;8.574;2023-05-10T01:11:57;2.17;;;1.20;;
3347;SDS011;1687;49.540;8.574;2023-05-10T01:14:24;4.10;;;1.90;;
3347;SDS011;1687;49.540;8.574;2023-05-10T01:16:51;3.83;;;1.27;;
3347;SDS011;1687;49.540;8.574;2023-05-10T01:19:19;2.50;;;1.27;;
3347;SDS011;1687;49.540;8.574;2023-05-10T01:21:58;2.10;;;1.20;;
3347;SDS011;1687;49.540;8.574;2023-05-10T01:35:59;3.13;;;1.50;;
3347;SDS011;1687;49.540;8.574;2023-05-10T01:41:32;4.03;;;1.90;;
3347;SDS011;1687;49.540;8.574;2023-05-10T01:44:11;3.03;;;1.67;;
3347;SDS011;1687;49.540;8.574;2023-05-10T01:46:53;3.50;;;1.97;;
3347;SDS011;1687;49.540;8.574;2023-05-10T01:49:32;4.77;;;1.80;;
3347;SDS011;1687;49.540;8.574;2023-05-10T01:52:06;3.37;;;1.80;;
3347;SDS011;1687;49.540;8.574;2023-05-10T01:54:42;4.13;;;1.50;;
3347;SDS011;1687;49.540;8.574;2023-05-10T01:57:15;2.57;;;1.47;;
3347;SDS011;1687;49.540;8.574;2023-05-10T01:59:43;3.23;;;1.40;;
3347;SDS011;1687;49.540;8.574;2023-05-10T02:02:15;3.13;;;1.70;;
3347;SDS011;1687;49.540;8.574;2023-05-10T02:04:42;5.37;;;2.07;;
3347;SDS011;1687;49.540;8.574;2023-05-10T02:07:09;3.23;;;1.33;;
3347;SDS011;1687;49.540;8.574;2023-05-10T02:09:36;3.20;;;1.60;;
3347;SDS011;1687;49.540;8.574;2023-05-10T02:12:03;3.47;;;1.73;;
3347;SDS011;1687;49.540;8.574;2023-05-10T02:14:32;3.13;;;1.93;;
3347;SDS011;1687;49.540;8.574;2023-05-10T02:17:01;3.30;;;1.40;;
3347;SDS011;1687;49.540;8.574;2023-05-10T02:19:30;3.00;;;1.40;;
3347;SDS011;1687;49.540;8.574;2023-05-10T02:21:58;3.50;;;1.83;;
3347;SDS011;1687;49.540;8.574;2023-05-10T02:24:25;2.67;;;1.37;;
3347;SDS011;1687;49.540;8.574;2023-05-10T02:26:53;4.53;;;1.50;;
3347;SDS011;1687;49.540;8.574;2023-05-10T02:29:21;2.43;;;1.20;;
3347;SDS011;1687;49.540;8.574;2023-05-10T02:31:49;3.53;;;1.87;;
3347;SDS011;1687;49.540;8.574;2023-05-10T02:34:17;12.00;;;1.80;;
3347;SDS011;1687;49.540;8.574;2023-05-10T02:36:46;24.13;;;2.13;;
3347;SDS011;1687;49.540;8.574;2023-05-10T02:39:13;4.07;;;1.40;;
3347;SDS011;1687;49.540;8.574;2023-05-10T02:41:40;2.93;;;1.30;;
3347;SDS011;1687;49.540;8.574;2023-05-10T02:44:08;9.83;;;1.13;;
3347;SDS011;1687;49.540;8.574;2023-05-10T02:46:35;8.07;;;1.40;;
3347;SDS011;1687;49.540;8.574;2023-05-10T02:49:02;2.40;;;1.40;;
3347;SDS011;1687;49.540;8.574;2023-05-10T02:51:30;2.27;;;1.00;;
3347;SDS011;1687;49.540;8.574;2023-05-10T02:54:01;2.53;;;1.30;;
3347;SDS011;1687;49.540;8.574;2023-05-10T02:56:39;12.00;;;1.67;;
3347;SDS011;1687;49.540;8.574;2023-05-10T02:59:08;3.00;;;1.53;;
3347;SDS011;1687;49.540;8.574;2023-05-10T03:01:33;3.20;;;1.50;;
3347;SDS011;1687;49.540;8.574;2023-05-10T03:03:59;2.80;;;1.30;;
3347;SDS011;1687;49.540;8.574;2023-05-10T03:06:25;3.73;;;1.50;;
3347;SDS011;1687;49.540;8.574;2023-05-10T03:08:51;2.47;;;1.40;;
3347;SDS011;1687;49.540;8.574;2023-05-10T03:11:34;2.00;;;1.10;;
3347;SDS011;1687;49.540;8.574;2023-05-10T03:17:14;2.83;;;1.50;;
3347;SDS011;1687;49.540;8.574;2023-05-10T03:20:21;1.80;;;0.97;;
3347;SDS011;1687;49.540;8.574;2023-05-10T03:23:30;3.53;;;1.57;;
3347;SDS011;1687;49.540;8.574;2023-05-10T03:25:52;3.20;;;1.10;;
3347;SDS011;1687;49.540;8.574;2023-05-10T03:28:18;2.40;;;1.27;;
3347;SDS011;1687;49.540;8.574;2023-05-10T03:30:45;2.33;;;1.20;;
3347;SDS011;1687;49.540;8.574;2023-05-10T03:33:11;3.10;;;1.33;;
3347;SDS011;1687;49.540;8.574;2023-05-10T03:35:38;3.10;;;1.60;;
3347;SDS011;1687;49.540;8.574;2023-05-10T03:38:04;3.40;;;1.57;;
3347;SDS011;1687;49.540;8.574;2023-05-10T03:40:29;12.43;;;2.10;;
3347;SDS011;1687;49.540;8.574;2023-05-10T03:42:57;3.30;;;1.77;;
3347;SDS011;1687;49.540;8.574;2023-05-10T03:45:23;3.93;;;1.80;;
3347;SDS011;1687;49.540;8.574;2023-05-10T03:47:49;4.90;;;2.33;;
3347;SDS011;1687;49.540;8.574;2023-05-10T03:50:15;3.90;;;1.80;;
3347;SDS011;1687;49.540;8.574;2023-05-10T03:52:41;4.87;;;2.47;;
3347;SDS011;1687;49.540;8.574;2023-05-10T03:55:07;3.00;;;1.60;;
3347;SDS011;1687;49.540;8.574;2023-05-10T03:57:33;6.00;;;2.50;;
3347;SDS011;1687;49.540;8.574;2023-05-10T03:59:59;5.20;;;2.40;;
3347;SDS011;1687;49.540;8.574;2023-05-10T04:02:25;3.27;;;1.97;;
3347;SDS011;1687;49.540;8.574;2023-05-10T04:04:50;8.20;;;2.27;;
3347;SDS011;1687;49.540;8.574;2023-05-10T04:07:16;4.43;;;2.97;;
3347;SDS011;1687;49.540;8.574;2023-05-10T04:09:42;3.70;;;1.87;;
3347;SDS011;1687;49.540;8.574;2023-05-10T04:12:08;4.00;;;2.30;;
3347;SDS011;1687;49.540;8.574;2023-05-10T04:14:34;6.50;;;3.00;;
3347;SDS011;1687;49.540;8.574;2023-05-10T04:17:00;4.80;;;2.40;;
3347;SDS011;1687;49.540;8.574;2023-05-10T04:19:29;5.57;;;2.30;;
3347;SDS011;1687;49.540;8.574;2023-05-10T04:21:55;5.30;;;2.30;;
3347;SDS011;1687;49.540;8.574;2023-05-10T04:24:21;10.60;;;2.17;;
3347;SDS011;1687;49.540;8.574;2023-05-10T04:26:47;5.37;;;2.50;;
3347;SDS011;1687;49.540;8.574;2023-05-10T04:29:12;13.03;;;4.37;;
3347;SDS011;1687;49.540;8.574;2023-05-10T04:31:38;4.67;;;2.37;;
3347;SDS011;1687;49.540;8.574;2023-05-10T04:34:04;3.73;;;1.97;;
3347;SDS011;1687;49.540;8.574;2023-05-10T04:36:30;4.07;;;2.23;;
3347;SDS011;1687;49.540;8.574;2023-05-10T04:38:57;8.70;;;2.43;;
3347;SDS011;1687;49.540;8.574;2023-05-10T04:41:23;15.60;;;2.90;;
3347;SDS011;1687;49.540;8.574;2023-05-10T04:43:50;14.03;;;2.40;;
3347;SDS011;1687;49.540;8.574;2023-05-10T04:46:16;8.53;;;2.20;;
3347;SDS011;1687;49.540;8.574;2023-05-10T04:48:41;12.23;;;2.10;;
3347;SDS011;1687;49.540;8.574;2023-05-10T04:51:07;5.20;;;2.20;;
3347;SDS011;1687;49.540;8.574;2023-05-10T04:53:33;3.53;;;2.13;;
3347;SDS011;1687;49.540;8.574;2023-05-10T04:55:58;5.17;;;2.77;;
3347;SDS011;1687;49.540;8.574;2023-05-10T04:58:24;4.70;;;2.17;;
3347;SDS011;1687;49.540;8.574;2023-05-10T05:00:50;4.20;;;2.07;;
3347;SDS011;1687;49.540;8.574;2023-05-10T05:03:15;6.13;;;2.83;;
3347;SDS011;1687;49.540;8.574;2023-05-10T05:05:41;4.37;;;2.20;;
3347;SDS011;1687;49.540;8.574;2023-05-10T05:08:07;9.47;;;2.40;;
3347;SDS011;1687;49.540;8.574;2023-05-10T05:10:32;3.43;;;1.97;;
3347;SDS011;1687;49.540;8.574;2023-05-10T05:12:58;7.30;;;3.07;;
3347;SDS011;1687;49.540;8.574;2023-05-10T05:15:24;4.57;;;2.37;;
3347;SDS011;1687;49.540;8.574;2023-05-10T05:17:49;6.60;;;2.10;;
3347;SDS011;1687;49.540;8.574;2023-05-10T05:20:15;6.50;;;2.67;;
3347;SDS011;1687;49.540;8.574;2023-05-10T05:22:42;4.93;;;2.47;;
3347;SDS011;1687;49.540;8.574;2023-05-10T05:25:07;15.33;;;3.20;;
3347;SDS011;1687;49.540;8.574;2023-05-10T05:27:33;8.73;;;4.07;;
3347;SDS011;1687;49.540;8.574;2023-05-10T05:29:59;4.17;;;2.50;;
3347;SDS011;1687;49.540;8.574;2023-05-10T05:32:25;9.50;;;3.83;;
3347;SDS011;1687;49.540;8.574;2023-05-10T05:34:50;12.03;;;4.00;;
3347;SDS011;1687;49.540;8.574;2023-05-10T05:37:17;7.00;;;3.00;;
3347;SDS011;1687;49.540;8.574;2023-05-10T05:39:45;4.80;;;2.80;;
3347;SDS011;1687;49.540;8.574;2023-05-10T05:42:12;8.30;;;4.17;;
3347;SDS011;1687;49.540;8.574;2023-05-10T05:44:38;8.77;;;3.03;;
3347;SDS011;1687;49.540;8.574;2023-05-10T05:47:04;6.50;;;3.10;;
3347;SDS011;1687;49.540;8.574;2023-05-10T05:49:31;6.37;;;3.10;;
3347;SDS011;1687;49.540;8.574;2023-05-10T05:52:01;5.23;;;3.50;;
3347;SDS011;1687;49.540;8.574;2023-05-10T05:54:28;6.07;;;2.83;;
3347;SDS011;1687;49.540;8.574;2023-05-10T05:56:59;4.00;;;2.63;;
3347;SDS011;1687;49.540;8.574;2023-05-10T05:59:25;6.83;;;3.53;;
3347;SDS011;1687;49.540;8.574;2023-05-10T06:01:51;19.13;;;4.07;;
3347;SDS011;1687;49.540;8.574;2023-05-10T06:04:17;4.60;;;2.40;;
3347;SDS011;1687;49.540;8.574;2023-05-10T06:06:43;5.63;;;3.20;;
3347;SDS011;1687;49.540;8.574;2023-05-10T06:09:09;8.43;;;3.97;;
3347;SDS011;1687;49.540;8.574;2023-05-10T06:11:36;5.67;;;3.37;;
3347;SDS011;1687;49.540;8.574;2023-05-10T06:14:02;10.43;;;3.73;;
3347;SDS011;1687;49.540;8.574;2023-05-10T06:16:29;9.17;;;4.70;;
3347;SDS011;1687;49.540;8.574;2023-05-10T06:18:56;7.87;;;4.57;;
3347;SDS011;1687;49.540;8.574;2023-05-10T06:21:21;8.33;;;4.20;;
3347;SDS011;1687;49.540;8.574;2023-05-10T06:23:47;8.97;;;4.70;;
3347;SDS011;1687;49.540;8.574;2023-05-10T06:26:13;13.87;;;5.00;;
3347;SDS011;1687;49.540;8.574;2023-05-10T06:28:39;10.97;;;4.50;;
3347;SDS011;1687;49.540;8.574;2023-05-10T06:31:05;8.03;;;4.60;;
3347;SDS011;1687;49.540;8.574;2023-05-10T06:33:31;10.03;;;4.70;;
3347;SDS011;1687;49.540;8.574;2023-05-10T06:35:57;12.80;;;4.60;;
3347;SDS011;1687;49.540;8.574;2023-05-10T06:38:23;11.90;;;4.90;;
3347;SDS011;1687;49.540;8.574;2023-05-10T06:40:49;9.13;;;4.60;;
3347;SDS011;1687;49.540;8.574;2023-05-10T06:43:15;10.10;;;4.63;;
3347;SDS011;1687;49.540;8.574;2023-05-10T06:45:40;9.20;;;4.90;;
3347;SDS011;1687;49.540;8.574;2023-05-10T06:48:06;7.30;;;5.23;;
3347;SDS011;1687;49.540;8.574;2023-05-10T06:50:33;7.37;;;5.00;;
3347;SDS011;1687;49.540;8.574;2023-05-10T06:52:59;7.80;;;5.13;;
3347;SDS011;1687;49.540;8.574;2023-05-10T06:55:25;11.33;;;4.07;;
3347;SDS011;1687;49.540;8.574;2023-05-10T06:57:51;10.83;;;5.20;;
3347;SDS011;1687;49.540;8.574;2023-05-10T07:00:18;8.20;;;4.57;;
3347;SDS011;1687;49.540;8.574;2023-05-10T07:02:44;14.90;;;5.10;;
3347;SDS011;1687;49.540;8.574;2023-05-10T07:05:10;19.23;;;6.90;;
3347;SDS011;1687;49.540;8.574;2023-05-10T07:07:36;8.23;;;4.70;;
3347;SDS011;1687;49.540;8.574;2023-05-10T07:10:02;11.47;;;4.37;;
3347;SDS011;1687;49.540;8.574;2023-05-10T07:12:28;12.80;;;4.83;;
3347;SDS011;1687;49.540;8.574;2023-05-10T07:14:53;7.73;;;4.10;;
3347;SDS011;1687;49.540;8.574;2023-05-10T07:17:19;10.80;;;5.10;;
3347;SDS011;1687;49.540;8.574;2023-05-10T07:19:45;19.03;;;4.97;;
3347;SDS011;1687;49.540;8.574;2023-05-10T07:22:10;13.17;;;5.43;;
3347;SDS011;1687;49.540;8.574;2023-05-10T07:24:36;7.20;;;4.67;;
3347;SDS011;1687;49.540;8.574;2023-05-10T07:27:02;15.40;;;4.60;;
3347;SDS011;1687;49.540;8.574;2023-05-10T07:29:29;7.80;;;5.00;;
3347;SDS011;1687;49.540;8.574;2023-05-10T07:31:54;5.93;;;3.80;;
3347;SDS011;1687;49.540;8.574;2023-05-10T07:34:20;7.40;;;4.00;;
3347;SDS011;1687;49.540;8.574;2023-05-10T07:36:46;7.73;;;4.13;;
3347;SDS011;1687;49.540;8.574;2023-05-10T07:39:12;4.10;;;2.67;;
3347;SDS011;1687;49.540;8.574;2023-05-10T07:41:37;6.63;;;2.90;;
3347;SDS011;1687;49.540;8.574;2023-05-10T07:44:03;5.90;;;2.53;;
3347;SDS011;1687;49.540;8.574;2023-05-10T07:46:30;5.17;;;2.93;;
3347;SDS011;1687;49.540;8.574;2023-05-10T07:48:56;5.07;;;2.93;;
3347;SDS011;1687;49.540;8.574;2023-05-10T07:51:21;9.17;;;3.37;;
3347;SDS011;1687;49.540;8.574;2023-05-10T07:53:47;6.40;;;2.83;;
3347;SDS011;1687;49.540;8.574;2023-05-10T07:56:20;5.63;;;2.80;;
3347;SDS011;1687;49.540;8.574;2023-05-10T07:58:55;5.90;;;2.50;;
3347;SDS011;1687;49.540;8.574;2023-05-10T08:01:21;4.30;;;2.60;;
3347;SDS011;1687;49.540;8.574;2023-05-10T08:03:48;7.60;;;2.47;;
3347;SDS011;1687;49.540;8.574;2023-05-10T08:06:17;4.60;;;2.43;;
3347;SDS011;1687;49.540;8.574;2023-05-10T08:08:45;9.63;;;2.53;;
3347;SDS011;1687;49.540;8.574;2023-05-10T08:11:15;6.53;;;2.23;;
3347;SDS011;1687;49.540;8.574;2023-05-10T08:13:47;10.37;;;2.93;;
3347;SDS011;1687;49.540;8.574;2023-05-10T08:16:14;3.53;;;2.00;;
3347;SDS011;1687;49.540;8.574;2023-05-10T08:18:41;5.70;;;2.10;;
3347;SDS011;1687;49.540;8.574;2023-05-10T08:21:08;3.97;;;2.00;;
3347;SDS011;1687;49.540;8.574;2023-05-10T08:23:36;3.53;;;1.90;;
3347;SDS011;1687;49.540;8.574;2023-05-10T08:26:02;3.27;;;1.70;;
3347;SDS011;1687;49.540;8.574;2023-05-10T08:28:28;2.60;;;1.50;;
3347;SDS011;1687;49.540;8.574;2023-05-10T08:30:54;3.10;;;1.90;;
3347;SDS011;1687;49.540;8.574;2023-05-10T08:33:19;3.07;;;1.93;;
3347;SDS011;1687;49.540;8.574;2023-05-10T08:35:45;3.90;;;2.40;;
3347;SDS011;1687;49.540;8.574;2023-05-10T08:38:11;4.63;;;2.53;;
3347;SDS011;1687;49.540;8.574;2023-05-10T08:40:37;2.20;;;1.20;;
3347;SDS011;1687;49.540;8.574;2023-05-10T08:43:11;3.93;;;1.97;;
3347;SDS011;1687;49.540;8.574;2023-05-10T08:45:41;3.47;;;1.60;;
3347;SDS011;1687;49.540;8.574;2023-05-10T08:48:10;3.23;;;2.00;;
3347;SDS011;1687;49.540;8.574;2023-05-10T08:50:37;2.77;;;2.00;;
3347;SDS011;1687;49.540;8.574;2023-05-10T08:53:06;5.87;;;2.20;;
3347;SDS011;1687;49.540;8.574;2023-05-10T08:55:35;4.00;;;2.00;;
3347;SDS011;1687;49.540;8.574;2023-05-10T08:58:03;5.43;;;1.97;;
3347;SDS011;1687;49.540;8.574;2023-05-10T09:00:30;2.90;;;1.50;;
3347;SDS011;1687;49.540;8.574;2023-05-10T09:02:57;2.83;;;1.50;;
3347;SDS011;1687;49.540;8.574;2023-05-10T09:05:24;4.10;;;1.50;;
3347;SDS011;1687;49.540;8.574;2023-05-10T09:07:50;3.37;;;1.87;;
3347;SDS011;1687;49.540;8.574;2023-05-10T09:10:16;1.80;;;1.30;;
3347;SDS011;1687;49.540;8.574;2023-05-10T09:12:42;3.20;;;1.70;;
3347;SDS011;1687;49.540;8.574;2023-05-10T09:15:10;17.30;;;1.97;;
3347;SDS011;1687;49.540;8.574;2023-05-10T09:17:37;3.00;;;1.70;;
3347;SDS011;1687;49.540;8.574;2023-05-10T09:20:04;6.97;;;1.67;;
3347;SDS011;1687;49.540;8.574;2023-05-10T09:22:30;3.43;;;1.50;;
3347;SDS011;1687;49.540;8.574;2023-05-10T09:27:34;4.77;;;1.90;;
3347;SDS011;1687;49.540;8.574;2023-05-10T09:30:00;4.13;;;1.90;;
3347;SDS011;1687;49.540;8.574;2023-05-10T09:32:43;5.20;;;1.93;;
3347;SDS011;1687;49.540;8.574;2023-05-10T09:35:12;9.60;;;3.43;;
3347;SDS011;1687;49.540;8.574;2023-05-10T09:37:42;6.53;;;3.20;;
3347;SDS011;1687;49.540;8.574;2023-05-10T09:40:11;6.80;;;3.07;;
3347;SDS011;1687;49.540;8.574;2023-05-10T09:42:57;4.67;;;2.20;;
3347;SDS011;1687;49.540;8.574;2023-05-10T09:45:26;3.00;;;1.70;;
3347;SDS011;1687;49.540;8.574;2023-05-10T09:47:54;4.17;;;2.00;;
3347;SDS011;1687;49.540;8.574;2023-05-10T09:50:21;4.23;;;2.20;;
3347;SDS011;1687;49.540;8.574;2023-05-10T09:55:19;2.97;;;1.70;;
3347;SDS011;1687;49.540;8.574;2023-05-10T09:57:47;3.43;;;2.00;;
3347;SDS011;1687;49.540;8.574;2023-05-10T10:00:18;3.37;;;1.87;;
3347;SDS011;1687;49.540;8.574;2023-05-10T10:02:54;3.37;;;1.97;;
3347;SDS011;1687;49.540;8.574;2023-05-10T10:05:27;2.83;;;1.60;;
3347;SDS011;1687;49.540;8.574;2023-05-10T10:07:58;2.10;;;1.40;;
3347;SDS011;1687;49.540;8.574;2023-05-10T10:10:26;3.70;;;1.93;;
3347;SDS011;1687;49.540;8.574;2023-05-10T10:12:52;3.87;;;2.27;;
3347;SDS011;1687;49.540;8.574;2023-05-10T10:15:22;7.00;;;2.27;;
3347;SDS011;1687;49.540;8.574;2023-05-10T10:17:49;2.60;;;1.60;;
3347;SDS011;1687;49.540;8.574;2023-05-10T10:20:17;3.83;;;1.53;;
3347;SDS011;1687;49.540;8.574;2023-05-10T10:22:44;3.30;;;1.70;;
3347;SDS011;1687;49.540;8.574;2023-05-10T10:25:11;2.63;;;1.50;;
3347;SDS011;1687;49.540;8.574;2023-05-10T10:36:04;5.13;;;2.47;;
3347;SDS011;1687;49.540;8.574;2023-05-10T10:52:14;5.70;;;3.07;;
3347;SDS011;1687;49.540;8.574;2023-05-10T10:57:32;3.00;;;1.80;;
3347;SDS011;1687;49.540;8.574;2023-05-10T11:03:12;5.37;;;2.03;;
3347;SDS011;1687;49.540;8.574;2023-05-10T11:05:43;5.93;;;1.70;;
3347;SDS011;1687;49.540;8.574;2023-05-10T11:13:31;5.80;;;1.93;;
3347;SDS011;1687;49.540;8.574;2023-05-10T11:16:17;3.10;;;1.50;;
3347;SDS011;1687;49.540;8.574;2023-05-10T11:18:51;3.13;;;1.87;;
3347;SDS011;1687;49.540;8.574;2023-05-10T11:21:33;2.53;;;1.20;;
3347;SDS011;1687;49.540;8.574;2023-05-10T11:24:14;4.50;;;2.17;;
3347;SDS011;1687;49.540;8.574;2023-05-10T11:26:45;6.80;;;1.57;;
3347;SDS011;1687;49.540;8.574;2023-05-10T11:29:12;2.67;;;1.70;;
3347;SDS011;1687;49.540;8.574;2023-05-10T11:31:42;3.60;;;1.60;;
3347;SDS011;1687;49.540;8.574;2023-05-10T11:34:10;2.17;;;1.37;;
3347;SDS011;1687;49.540;8.574;2023-05-10T11:36:36;3.93;;;1.80;;
3347;SDS011;1687;49.540;8.574;2023-05-10T11:39:02;4.10;;;1.33;;
3347;SDS011;1687;49.540;8.574;2023-05-10T11:41:29;2.93;;;1.80;;
3347;SDS011;1687;49.540;8.574;2023-05-10T11:43:56;3.37;;;1.33;;
3347;SDS011;1687;49.540;8.574;2023-05-10T11:46:24;2.23;;;1.10;;
3347;SDS011;1687;49.540;8.574;2023-05-10T11:48:53;2.50;;;1.30;;
3347;SDS011;1687;49.540;8.574;2023-05-10T11:51:26;4.03;;;1.50;;
3347;SDS011;1687;49.540;8.574;2023-05-10T11:53:52;11.00;;;1.10;;
3347;SDS011;1687;49.540;8.574;2023-05-10T11:56:19;1.70;;;1.10;;
3347;SDS011;1687;49.540;8.574;2023-05-10T11:58:47;1.57;;;1.00;;
3347;SDS011;1687;49.540;8.574;2023-05-10T12:01:20;2.67;;;1.47;;
3347;SDS011;1687;49.540;8.574;2023-05-10T12:03:46;2.43;;;1.10;;
3347;SDS011;1687;49.540;8.574;2023-05-10T12:06:13;3.03;;;1.20;;
3347;SDS011;1687;49.540;8.574;2023-05-10T12:08:43;6.80;;;1.60;;
3347;SDS011;1687;49.540;8.574;2023-05-10T12:11:11;3.27;;;1.33;;
3347;SDS011;1687;49.540;8.574;2023-05-10T12:13:41;3.10;;;1.30;;
3347;SDS011;1687;49.540;8.574;2023-05-10T12:16:21;2.03;;;1.10;;
3347;SDS011;1687;49.540;8.574;2023-05-10T12:18:57;3.73;;;1.47;;
3347;SDS011;1687;49.540;8.574;2023-05-10T12:21:25;3.33;;;1.17;;
3347;SDS011;1687;49.540;8.574;2023-05-10T12:23:53;2.17;;;1.10;;
3347;SDS011;1687;49.540;8.574;2023-05-10T12:26:25;3.57;;;1.30;;
3347;SDS011;1687;49.540;8.574;2023-05-10T12:28:52;2.00;;;1.23;;
3347;SDS011;1687;49.540;8.574;2023-05-10T12:31:18;3.30;;;1.40;;
3347;SDS011;1687;49.540;8.574;2023-05-10T12:33:44;2.00;;;1.23;;
3347;SDS011;1687;49.540;8.574;2023-05-10T12:36:11;3.40;;;1.50;;
3347;SDS011;1687;49.540;8.574;2023-05-10T12:38:40;1.90;;;1.10;;
3347;SDS011;1687;49.540;8.574;2023-05-10T12:41:15;1.90;;;1.10;;
3347;SDS011;1687;49.540;8.574;2023-05-10T12:43:42;1.30;;;0.90;;
3347;SDS011;1687;49.540;8.574;2023-05-10T12:46:09;1.70;;;1.10;;
3347;SDS011;1687;49.540;8.574;2023-05-10T12:48:38;2.60;;;1.63;;
3347;SDS011;1687;49.540;8.574;2023-05-10T12:51:05;5.37;;;1.30;;
3347;SDS011;1687;49.540;8.574;2023-05-10T12:53:37;1.53;;;0.90;;
3347;SDS011;1687;49.540;8.574;2023-05-10T12:56:04;2.67;;;1.10;;
3347;SDS011;1687;49.540;8.574;2023-05-10T12:58:30;2.80;;;1.13;;
3347;SDS011;1687;49.540;8.574;2023-05-10T13:00:55;2.20;;;1.10;;
3347;SDS011;1687;49.540;8.574;2023-05-10T13:03:22;2.17;;;1.43;;
3347;SDS011;1687;49.540;8.574;2023-05-10T13:05:48;3.70;;;1.20;;
3347;SDS011;1687;49.540;8.574;2023-05-10T13:08:14;6.20;;;1.27;;
3347;SDS011;1687;49.540;8.574;2023-05-10T13:10:40;7.20;;;1.17;;
3347;SDS011;1687;49.540;8.574;2023-05-10T13:13:05;2.90;;;1.10;;
3347;SDS011;1687;49.540;8.574;2023-05-10T13:15:32;3.47;;;1.40;;
3347;SDS011;1687;49.540;8.574;2023-05-10T13:17:58;2.90;;;1.43;;
3347;SDS011;1687;49.540;8.574;2023-05-10T13:20:24;3.60;;;1.57;;
3347;SDS011;1687;49.540;8.574;2023-05-10T13:22:50;2.53;;;1.30;;
3347;SDS011;1687;49.540;8.574;2023-05-10T13:25:16;6.07;;;1.33;;
3347;SDS011;1687;49.540;8.574;2023-05-10T13:27:41;2.57;;;1.80;;
3347;SDS011;1687;49.540;8.574;2023-05-10T13:30:07;2.23;;;1.53;;
3347;SDS011;1687;49.540;8.574;2023-05-10T13:32:34;5.80;;;1.33;;
3347;SDS011;1687;49.540;8.574;2023-05-10T13:35:01;4.67;;;1.70;;
3347;SDS011;1687;49.540;8.574;2023-05-10T13:37:28;14.23;;;1.17;;
3347;SDS011;1687;49.540;8.574;2023-05-10T13:39:54;4.50;;;1.73;;
3347;SDS011;1687;49.540;8.574;2023-05-10T13:42:21;6.00;;;1.63;;
3347;SDS011;1687;49.540;8.574;2023-05-10T13:44:48;3.83;;;1.27;;
3347;SDS011;1687;49.540;8.574;2023-05-10T13:47:14;3.37;;;1.27;;
3347;SDS011;1687;49.540;8.574;2023-05-10T13:49:40;1.27;;;1.00;;
3347;SDS011;1687;49.540;8.574;2023-05-10T13:52:06;1.40;;;1.00;;
3347;SDS011;1687;49.540;8.574;2023-05-10T13:54:32;5.33;;;2.30;;
3347;SDS011;1687;49.540;8.574;2023-05-10T13:56:59;2.17;;;1.00;;
3347;SDS011;1687;49.540;8.574;2023-05-10T13:59:25;3.53;;;1.30;;
3347;SDS011;1687;49.540;8.574;2023-05-10T14:01:50;1.30;;;0.73;;
3347;SDS011;1687;49.540;8.574;2023-05-10T14:04:16;2.73;;;1.00;;
3347;SDS011;1687;49.540;8.574;2023-05-10T14:06:42;1.60;;;0.97;;
3347;SDS011;1687;49.540;8.574;2023-05-10T14:09:07;5.67;;;1.33;;
3347;SDS011;1687;49.540;8.574;2023-05-10T14:11:33;1.40;;;1.10;;
3347;SDS011;1687;49.540;8.574;2023-05-10T14:13:59;1.77;;;0.97;;
3347;SDS011;1687;49.540;8.574;2023-05-10T14:16:24;3.40;;;1.13;;
3347;SDS011;1687;49.540;8.574;2023-05-10T14:18:51;1.40;;;0.90;;
3347;SDS011;1687;49.540;8.574;2023-05-10T14:21:16;3.63;;;1.27;;
3347;SDS011;1687;49.540;8.574;2023-05-10T14:23:42;2.80;;;1.00;;
3347;SDS011;1687;49.540;8.574;2023-05-10T14:26:08;6.87;;;1.40;;
3347;SDS011;1687;49.540;8.574;2023-05-10T14:28:33;2.07;;;1.07;;
3347;SDS011;1687;49.540;8.574;2023-05-10T14:30:59;1.60;;;1.20;;
3347;SDS011;1687;49.540;8.574;2023-05-10T14:33:25;2.17;;;0.80;;
3347;SDS011;1687;49.540;8.574;2023-05-10T14:35:50;6.30;;;1.17;;
3347;SDS011;1687;49.540;8.574;2023-05-10T14:38:17;1.80;;;0.97;;
3347;SDS011;1687;49.540;8.574;2023-05-10T14:40:42;7.40;;;1.13;;
3347;SDS011;1687;49.540;8.574;2023-05-10T14:43:08;1.60;;;1.10;;
3347;SDS011;1687;49.540;8.574;2023-05-10T14:45:34;1.50;;;0.80;;
3347;SDS011;1687;49.540;8.574;2023-05-10T14:48:00;1.30;;;0.80;;
3347;SDS011;1687;49.540;8.574;2023-05-10T14:50:29;13.47;;;0.93;;
3347;SDS011;1687;49.540;8.574;2023-05-10T14:52:56;3.30;;;0.80;;
3347;SDS011;1687;49.540;8.574;2023-05-10T14:55:22;4.10;;;1.10;;
3347;SDS011;1687;49.540;8.574;2023-05-10T14:57:48;2.30;;;0.80;;
3347;SDS011;1687;49.540;8.574;2023-05-10T15:00:15;1.10;;;0.83;;
3347;SDS011;1687;49.540;8.574;2023-05-10T15:02:41;3.43;;;0.90;;
3347;SDS011;1687;49.540;8.574;2023-05-10T15:05:07;1.30;;;0.80;;
3347;SDS011;1687;49.540;8.574;2023-05-10T15:07:33;1.33;;;0.83;;
3347;SDS011;1687;49.540;8.574;2023-05-10T15:09:59;1.87;;;0.90;;
3347;SDS011;1687;49.540;8.574;2023-05-10T15:12:25;3.63;;;0.90;;
3347;SDS011;1687;49.540;8.574;2023-05-10T15:14:50;1.40;;;0.80;;
3347;SDS011;1687;49.540;8.574;2023-05-10T15:17:16;2.83;;;1.10;;
3347;SDS011;1687;49.540;8.574;2023-05-10T15:19:42;1.20;;;0.90;;
3347;SDS011;1687;49.540;8.574;2023-05-10T15:22:08;5.53;;;1.30;;
3347;SDS011;1687;49.540;8.574;2023-05-10T15:24:33;2.80;;;1.17;;
3347;SDS011;1687;49.540;8.574;2023-05-10T15:26:59;2.37;;;1.23;;
3347;SDS011;1687;49.540;8.574;2023-05-10T15:29:25;1.40;;;0.90;;
3347;SDS011;1687;49.540;8.574;2023-05-10T15:31:51;5.27;;;1.83;;
3347;SDS011;1687;49.540;8.574;2023-05-10T15:34:17;1.63;;;0.93;;
3347;SDS011;1687;49.540;8.574;2023-05-10T15:36:44;1.40;;;1.10;;
3347;SDS011;1687;49.540;8.574;2023-05-10T15:39:10;1.10;;;0.70;;
3347;SDS011;1687;49.540;8.574;2023-05-10T15:41:36;1.90;;;0.90;;
3347;SDS011;1687;49.540;8.574;2023-05-10T15:44:03;1.20;;;0.80;;
3347;SDS011;1687;49.540;8.574;2023-05-10T15:46:28;2.03;;;1.10;;
3347;SDS011;1687;49.540;8.574;2023-05-10T15:48:56;1.07;;;0.73;;
3347;SDS011;1687;49.540;8.574;2023-05-10T15:51:23;4.67;;;1.17;;
3347;SDS011;1687;49.540;8.574;2023-05-10T15:53:49;5.93;;;1.17;;
3347;SDS011;1687;49.540;8.574;2023-05-10T15:56:14;1.30;;;0.80;;
3347;SDS011;1687;49.540;8.574;2023-05-10T15:58:40;1.20;;;0.70;;
3347;SDS011;1687;49.540;8.574;2023-05-10T16:01:07;1.13;;;0.70;;
3347;SDS011;1687;49.540;8.574;2023-05-10T16:03:34;1.03;;;0.70;;
3347;SDS011;1687;49.540;8.574;2023-05-10T16:06:00;3.00;;;0.80;;
3347;SDS011;1687;49.540;8.574;2023-05-10T16:08:26;2.60;;;0.80;;
3347;SDS011;1687;49.540;8.574;2023-05-10T16:10:54;4.07;;;0.90;;
3347;SDS011;1687;49.540;8.574;2023-05-10T16:13:21;1.40;;;0.90;;